sensor_id;sensor_type;location;lat;lon;timestamp;P1;durP1;ratioP1;P2;durP2;ratioP2
6785;SDS011;3430;51.192;6.048;2024-03-17T00:00:50;3.17;;;2.97;;
6785;SDS011;3430;51.192;6.048;2024-03-17T00:03:15;2.90;;;2.70;;
6785;SDS011;3430;51.192;6.048;2024-03-17T00:05:41;3.10;;;2.90;;
6785;SDS011;3430;51.192;6.048;2024-03-17T00:08:15;4.67;;;3.30;;
6785;SDS011;3430;51.192;6.048;2024-03-17T00:10:40;4.50;;;3.10;;
6785;SDS011;3430;51.192;6.048;2024-03-17T00:13:06;3.57;;;3.27;;
6785;SDS011;3430;51.192;6.048;2024-03-17T00:15:31;3.83;;;3.33;;
6785;SDS011;3430;51.192;6.048;2024-03-17T00:17:57;3.40;;;3.10;;
6785;SDS011;3430;51.192;6.048;2024-03-17T00:20:22;3.77;;;3.33;;
6785;SDS011;3430;51.192;6.048;2024-03-17T00:22:49;3.43;;;2.90;;
6785;SDS011;3430;51.192;6.048;2024-03-17T00:25:16;3.17;;;2.87;;
6785;SDS011;3430;51.192;6.048;2024-03-17T00:27:42;3.20;;;2.90;;
6785;SDS011;3430;51.192;6.048;2024-03-17T00:30:10;3.60;;;3.30;;
6785;SDS011;3430;51.192;6.048;2024-03-17T00:32:38;3.37;;;3.07;;
6785;SDS011;3430;51.192;6.048;2024-03-17T00:35:03;5.20;;;3.50;;
6785;SDS011;3430;51.192;6.048;2024-03-17T00:37:29;3.27;;;2.97;;
6785;SDS011;3430;51.192;6.048;2024-03-17T00:39:55;3.47;;;3.17;;
6785;SDS011;3430;51.192;6.048;2024-03-17T00:42:20;3.40;;;3.10;;
6785;SDS011;3430;51.192;6.048;2024-03-17T00:44:46;3.10;;;2.90;;
6785;SDS011;3430;51.192;6.048;2024-03-17T00:47:11;3.60;;;3.30;;
6785;SDS011;3430;51.192;6.048;2024-03-17T00:49:37;3.27;;;3.03;;
6785;SDS011;3430;51.192;6.048;2024-03-17T00:52:02;3.60;;;3.27;;
6785;SDS011;3430;51.192;6.048;2024-03-17T00:54:31;4.13;;;3.60;;
6785;SDS011;3430;51.192;6.048;2024-03-17T00:56:57;3.53;;;3.23;;
6785;SDS011;3430;51.192;6.048;2024-03-17T00:59:22;3.50;;;3.20;;
6785;SDS011;3430;51.192;6.048;2024-03-17T01:01:50;4.93;;;3.17;;
6785;SDS011;3430;51.192;6.048;2024-03-17T01:04:15;3.40;;;3.10;;
6785;SDS011;3430;51.192;6.048;2024-03-17T01:06:41;3.90;;;3.50;;
6785;SDS011;3430;51.192;6.048;2024-03-17T01:09:06;3.63;;;3.33;;
6785;SDS011;3430;51.192;6.048;2024-03-17T01:11:33;3.97;;;3.33;;
6785;SDS011;3430;51.192;6.048;2024-03-17T01:13:58;3.47;;;3.17;;
6785;SDS011;3430;51.192;6.048;2024-03-17T01:16:24;5.07;;;3.60;;
6785;SDS011;3430;51.192;6.048;2024-03-17T01:18:49;3.77;;;3.33;;
6785;SDS011;3430;51.192;6.048;2024-03-17T01:21:15;3.80;;;3.40;;
6785;SDS011;3430;51.192;6.048;2024-03-17T01:23:40;3.43;;;3.20;;
6785;SDS011;3430;51.192;6.048;2024-03-17T01:26:06;4.10;;;3.60;;
6785;SDS011;3430;51.192;6.048;2024-03-17T01:28:31;3.50;;;3.20;;
6785;SDS011;3430;51.192;6.048;2024-03-17T01:30:57;3.53;;;3.23;;
6785;SDS011;3430;51.192;6.048;2024-03-17T01:33:24;3.30;;;3.03;;
6785;SDS011;3430;51.192;6.048;2024-03-17T01:35:50;3.37;;;3.07;;
6785;SDS011;3430;51.192;6.048;2024-03-17T01:38:15;3.67;;;3.37;;
6785;SDS011;3430;51.192;6.048;2024-03-17T01:40:40;3.37;;;3.07;;
6785;SDS011;3430;51.192;6.048;2024-03-17T01:43:09;3.93;;;3.53;;
6785;SDS011;3430;51.192;6.048;2024-03-17T01:45:34;3.93;;;3.53;;
6785;SDS011;3430;51.192;6.048;2024-03-17T01:48:00;4.63;;;3.73;;
6785;SDS011;3430;51.192;6.048;2024-03-17T01:50:28;3.67;;;3.30;;
6785;SDS011;3430;51.192;6.048;2024-03-17T01:52:54;4.33;;;3.47;;
6785;SDS011;3430;51.192;6.048;2024-03-17T01:55:21;5.07;;;3.50;;
6785;SDS011;3430;51.192;6.048;2024-03-17T01:57:48;3.93;;;3.57;;
6785;SDS011;3430;51.192;6.048;2024-03-17T02:00:14;3.83;;;3.47;;
6785;SDS011;3430;51.192;6.048;2024-03-17T02:02:40;3.80;;;3.50;;
6785;SDS011;3430;51.192;6.048;2024-03-17T02:05:05;3.90;;;3.50;;
6785;SDS011;3430;51.192;6.048;2024-03-17T02:07:31;3.73;;;3.43;;
6785;SDS011;3430;51.192;6.048;2024-03-17T02:09:57;3.47;;;3.17;;
6785;SDS011;3430;51.192;6.048;2024-03-17T02:12:23;4.83;;;4.23;;
6785;SDS011;3430;51.192;6.048;2024-03-17T02:14:48;3.50;;;3.20;;
6785;SDS011;3430;51.192;6.048;2024-03-17T02:17:13;3.57;;;3.27;;
6785;SDS011;3430;51.192;6.048;2024-03-17T02:19:39;4.57;;;3.40;;
6785;SDS011;3430;51.192;6.048;2024-03-17T02:22:08;4.03;;;3.73;;
6785;SDS011;3430;51.192;6.048;2024-03-17T02:24:33;3.80;;;3.50;;
6785;SDS011;3430;51.192;6.048;2024-03-17T02:26:58;3.60;;;3.30;;
6785;SDS011;3430;51.192;6.048;2024-03-17T02:29:24;4.90;;;4.20;;
6785;SDS011;3430;51.192;6.048;2024-03-17T02:31:49;4.00;;;3.60;;
6785;SDS011;3430;51.192;6.048;2024-03-17T02:34:15;4.03;;;3.50;;
6785;SDS011;3430;51.192;6.048;2024-03-17T02:36:40;3.70;;;3.40;;
6785;SDS011;3430;51.192;6.048;2024-03-17T02:39:06;4.00;;;3.57;;
6785;SDS011;3430;51.192;6.048;2024-03-17T02:41:50;3.90;;;3.50;;
6785;SDS011;3430;51.192;6.048;2024-03-17T02:44:16;4.90;;;3.30;;
6785;SDS011;3430;51.192;6.048;2024-03-17T02:46:41;4.03;;;3.67;;
6785;SDS011;3430;51.192;6.048;2024-03-17T02:49:07;3.93;;;3.63;;
6785;SDS011;3430;51.192;6.048;2024-03-17T02:51:38;3.73;;;3.23;;
6785;SDS011;3430;51.192;6.048;2024-03-17T02:54:04;3.87;;;3.43;;
6785;SDS011;3430;51.192;6.048;2024-03-17T02:56:31;4.23;;;3.83;;
6785;SDS011;3430;51.192;6.048;2024-03-17T02:58:56;3.77;;;3.47;;
6785;SDS011;3430;51.192;6.048;2024-03-17T03:01:21;4.10;;;3.63;;
6785;SDS011;3430;51.192;6.048;2024-03-17T03:03:47;4.00;;;3.53;;
6785;SDS011;3430;51.192;6.048;2024-03-17T03:06:14;3.57;;;3.27;;
6785;SDS011;3430;51.192;6.048;2024-03-17T03:08:40;3.90;;;3.60;;
6785;SDS011;3430;51.192;6.048;2024-03-17T03:11:09;3.90;;;3.50;;
6785;SDS011;3430;51.192;6.048;2024-03-17T03:13:41;4.03;;;3.60;;
6785;SDS011;3430;51.192;6.048;2024-03-17T03:16:07;3.83;;;3.50;;
6785;SDS011;3430;51.192;6.048;2024-03-17T03:18:33;4.27;;;3.67;;
6785;SDS011;3430;51.192;6.048;2024-03-17T03:20:58;3.60;;;3.27;;
6785;SDS011;3430;51.192;6.048;2024-03-17T03:23:24;4.60;;;3.27;;
6785;SDS011;3430;51.192;6.048;2024-03-17T03:25:54;3.70;;;3.40;;
6785;SDS011;3430;51.192;6.048;2024-03-17T03:28:19;5.47;;;3.50;;
6785;SDS011;3430;51.192;6.048;2024-03-17T03:30:45;4.30;;;3.67;;
6785;SDS011;3430;51.192;6.048;2024-03-17T03:33:10;3.83;;;3.47;;
6785;SDS011;3430;51.192;6.048;2024-03-17T03:35:35;3.77;;;3.47;;
6785;SDS011;3430;51.192;6.048;2024-03-17T03:38:01;4.23;;;3.70;;
6785;SDS011;3430;51.192;6.048;2024-03-17T03:40:30;4.63;;;4.07;;
6785;SDS011;3430;51.192;6.048;2024-03-17T03:42:58;4.03;;;3.63;;
6785;SDS011;3430;51.192;6.048;2024-03-17T03:45:23;3.77;;;3.47;;
6785;SDS011;3430;51.192;6.048;2024-03-17T03:47:50;4.00;;;3.70;;
6785;SDS011;3430;51.192;6.048;2024-03-17T03:50:19;4.73;;;3.73;;
6785;SDS011;3430;51.192;6.048;2024-03-17T03:52:48;4.63;;;4.00;;
6785;SDS011;3430;51.192;6.048;2024-03-17T03:55:21;3.97;;;3.47;;
6785;SDS011;3430;51.192;6.048;2024-03-17T03:57:47;4.27;;;3.87;;
6785;SDS011;3430;51.192;6.048;2024-03-17T04:00:16;4.53;;;3.73;;
6785;SDS011;3430;51.192;6.048;2024-03-17T04:02:53;4.53;;;3.50;;
6785;SDS011;3430;51.192;6.048;2024-03-17T04:05:18;4.37;;;3.97;;
6785;SDS011;3430;51.192;6.048;2024-03-17T04:07:45;5.90;;;3.87;;
6785;SDS011;3430;51.192;6.048;2024-03-17T04:10:13;4.37;;;3.97;;
6785;SDS011;3430;51.192;6.048;2024-03-17T04:12:39;4.27;;;3.80;;
6785;SDS011;3430;51.192;6.048;2024-03-17T04:15:05;3.93;;;3.53;;
6785;SDS011;3430;51.192;6.048;2024-03-17T04:17:31;4.00;;;3.67;;
6785;SDS011;3430;51.192;6.048;2024-03-17T04:19:57;5.23;;;4.67;;
6785;SDS011;3430;51.192;6.048;2024-03-17T04:22:23;4.53;;;3.90;;
6785;SDS011;3430;51.192;6.048;2024-03-17T04:24:50;4.30;;;3.90;;
6785;SDS011;3430;51.192;6.048;2024-03-17T04:27:19;4.20;;;3.80;;
6785;SDS011;3430;51.192;6.048;2024-03-17T04:29:48;5.83;;;4.03;;
6785;SDS011;3430;51.192;6.048;2024-03-17T04:32:15;3.83;;;3.53;;
6785;SDS011;3430;51.192;6.048;2024-03-17T04:34:43;4.17;;;3.60;;
6785;SDS011;3430;51.192;6.048;2024-03-17T04:37:09;4.97;;;3.80;;
6785;SDS011;3430;51.192;6.048;2024-03-17T04:39:37;5.07;;;3.77;;
6785;SDS011;3430;51.192;6.048;2024-03-17T04:42:03;3.80;;;3.50;;
6785;SDS011;3430;51.192;6.048;2024-03-17T04:44:29;4.50;;;3.90;;
6785;SDS011;3430;51.192;6.048;2024-03-17T04:46:54;4.03;;;3.50;;
6785;SDS011;3430;51.192;6.048;2024-03-17T04:49:20;5.37;;;4.07;;
6785;SDS011;3430;51.192;6.048;2024-03-17T04:51:45;4.93;;;3.77;;
6785;SDS011;3430;51.192;6.048;2024-03-17T04:54:12;4.17;;;3.77;;
6785;SDS011;3430;51.192;6.048;2024-03-17T04:56:37;4.47;;;4.03;;
6785;SDS011;3430;51.192;6.048;2024-03-17T04:59:03;5.07;;;4.10;;
6785;SDS011;3430;51.192;6.048;2024-03-17T05:01:28;4.37;;;3.43;;
6785;SDS011;3430;51.192;6.048;2024-03-17T05:03:56;3.50;;;3.20;;
6785;SDS011;3430;51.192;6.048;2024-03-17T05:06:21;3.83;;;3.40;;
6785;SDS011;3430;51.192;6.048;2024-03-17T05:08:47;3.90;;;3.50;;
6785;SDS011;3430;51.192;6.048;2024-03-17T05:11:15;3.83;;;3.53;;
6785;SDS011;3430;51.192;6.048;2024-03-17T05:13:43;4.53;;;3.83;;
6785;SDS011;3430;51.192;6.048;2024-03-17T05:16:11;4.47;;;3.17;;
6785;SDS011;3430;51.192;6.048;2024-03-17T05:18:37;3.70;;;3.30;;
6785;SDS011;3430;51.192;6.048;2024-03-17T05:21:05;4.40;;;3.90;;
6785;SDS011;3430;51.192;6.048;2024-03-17T05:23:31;4.60;;;3.53;;
6785;SDS011;3430;51.192;6.048;2024-03-17T05:25:57;3.97;;;3.33;;
6785;SDS011;3430;51.192;6.048;2024-03-17T05:28:27;3.93;;;3.63;;
6785;SDS011;3430;51.192;6.048;2024-03-17T05:30:53;4.07;;;3.10;;
6785;SDS011;3430;51.192;6.048;2024-03-17T05:33:19;4.10;;;3.70;;
6785;SDS011;3430;51.192;6.048;2024-03-17T05:38:16;4.37;;;3.80;;
6785;SDS011;3430;51.192;6.048;2024-03-17T05:40:41;3.97;;;3.57;;
6785;SDS011;3430;51.192;6.048;2024-03-17T05:43:09;4.10;;;3.60;;
6785;SDS011;3430;51.192;6.048;2024-03-17T05:45:34;3.67;;;3.37;;
6785;SDS011;3430;51.192;6.048;2024-03-17T05:48:00;4.07;;;3.67;;
6785;SDS011;3430;51.192;6.048;2024-03-17T05:50:30;4.23;;;3.37;;
6785;SDS011;3430;51.192;6.048;2024-03-17T05:52:55;4.67;;;3.37;;
6785;SDS011;3430;51.192;6.048;2024-03-17T05:55:23;3.87;;;3.47;;
6785;SDS011;3430;51.192;6.048;2024-03-17T05:57:49;4.30;;;3.90;;
6785;SDS011;3430;51.192;6.048;2024-03-17T06:00:14;4.70;;;4.03;;
6785;SDS011;3430;51.192;6.048;2024-03-17T06:02:43;4.07;;;3.67;;
6785;SDS011;3430;51.192;6.048;2024-03-17T06:05:12;5.87;;;3.67;;
6785;SDS011;3430;51.192;6.048;2024-03-17T06:07:39;4.17;;;3.77;;
6785;SDS011;3430;51.192;6.048;2024-03-17T06:10:05;3.60;;;3.30;;
6785;SDS011;3430;51.192;6.048;2024-03-17T06:12:30;3.53;;;3.23;;
6785;SDS011;3430;51.192;6.048;2024-03-17T06:14:56;3.57;;;3.27;;
6785;SDS011;3430;51.192;6.048;2024-03-17T06:17:21;5.13;;;3.90;;
6785;SDS011;3430;51.192;6.048;2024-03-17T06:19:46;4.50;;;3.77;;
6785;SDS011;3430;51.192;6.048;2024-03-17T06:22:12;3.70;;;3.40;;
6785;SDS011;3430;51.192;6.048;2024-03-17T06:24:37;5.23;;;3.93;;
6785;SDS011;3430;51.192;6.048;2024-03-17T06:27:03;4.23;;;3.83;;
6785;SDS011;3430;51.192;6.048;2024-03-17T06:29:37;3.90;;;3.50;;
6785;SDS011;3430;51.192;6.048;2024-03-17T06:32:03;3.90;;;3.50;;
6785;SDS011;3430;51.192;6.048;2024-03-17T06:34:28;3.87;;;3.30;;
6785;SDS011;3430;51.192;6.048;2024-03-17T06:36:54;3.60;;;3.30;;
6785;SDS011;3430;51.192;6.048;2024-03-17T06:39:19;4.97;;;3.30;;
6785;SDS011;3430;51.192;6.048;2024-03-17T06:41:46;4.60;;;3.53;;
6785;SDS011;3430;51.192;6.048;2024-03-17T06:44:17;4.60;;;3.43;;
6785;SDS011;3430;51.192;6.048;2024-03-17T06:46:42;3.93;;;3.50;;
6785;SDS011;3430;51.192;6.048;2024-03-17T06:49:09;3.57;;;3.27;;
6785;SDS011;3430;51.192;6.048;2024-03-17T06:51:34;3.60;;;3.20;;
6785;SDS011;3430;51.192;6.048;2024-03-17T06:54:00;4.10;;;3.40;;
6785;SDS011;3430;51.192;6.048;2024-03-17T06:56:31;5.80;;;3.37;;
6785;SDS011;3430;51.192;6.048;2024-03-17T06:58:57;4.03;;;3.43;;
6785;SDS011;3430;51.192;6.048;2024-03-17T07:01:23;3.40;;;3.10;;
6785;SDS011;3430;51.192;6.048;2024-03-17T07:03:52;3.97;;;3.57;;
6785;SDS011;3430;51.192;6.048;2024-03-17T07:06:17;3.60;;;3.30;;
6785;SDS011;3430;51.192;6.048;2024-03-17T08:39:39;3.63;;;3.33;;
6785;SDS011;3430;51.192;6.048;2024-03-17T08:42:04;3.70;;;3.10;;
6785;SDS011;3430;51.192;6.048;2024-03-17T08:44:29;3.40;;;3.10;;
6785;SDS011;3430;51.192;6.048;2024-03-17T08:46:55;3.47;;;3.17;;
6785;SDS011;3430;51.192;6.048;2024-03-17T08:49:22;3.30;;;3.00;;
6785;SDS011;3430;51.192;6.048;2024-03-17T08:51:47;4.13;;;3.00;;
6785;SDS011;3430;51.192;6.048;2024-03-17T08:54:13;3.40;;;3.10;;
6785;SDS011;3430;51.192;6.048;2024-03-17T08:56:38;3.57;;;3.27;;
6785;SDS011;3430;51.192;6.048;2024-03-17T08:59:03;4.40;;;3.40;;
6785;SDS011;3430;51.192;6.048;2024-03-17T09:01:28;3.77;;;3.27;;
6785;SDS011;3430;51.192;6.048;2024-03-17T09:03:54;5.00;;;3.17;;
6785;SDS011;3430;51.192;6.048;2024-03-17T09:06:21;8.07;;;2.97;;
6785;SDS011;3430;51.192;6.048;2024-03-17T09:08:48;5.93;;;3.20;;
6785;SDS011;3430;51.192;6.048;2024-03-17T09:11:13;5.57;;;3.27;;
6785;SDS011;3430;51.192;6.048;2024-03-17T09:13:39;3.17;;;2.80;;
6785;SDS011;3430;51.192;6.048;2024-03-17T09:16:04;5.97;;;3.37;;
6785;SDS011;3430;51.192;6.048;2024-03-17T09:18:30;3.67;;;3.10;;
6785;SDS011;3430;51.192;6.048;2024-03-17T09:21:05;3.30;;;3.10;;
6785;SDS011;3430;51.192;6.048;2024-03-17T09:23:32;3.80;;;3.50;;
6785;SDS011;3430;51.192;6.048;2024-03-17T09:26:02;4.60;;;3.17;;
6785;SDS011;3430;51.192;6.048;2024-03-17T09:28:28;3.90;;;3.50;;
6785;SDS011;3430;51.192;6.048;2024-03-17T09:30:54;3.43;;;3.13;;
6785;SDS011;3430;51.192;6.048;2024-03-17T09:33:20;3.67;;;3.33;;
6785;SDS011;3430;51.192;6.048;2024-03-17T09:38:40;5.20;;;3.40;;
6785;SDS011;3430;51.192;6.048;2024-03-17T09:41:06;6.63;;;3.30;;
6785;SDS011;3430;51.192;6.048;2024-03-17T09:43:33;3.23;;;2.93;;
6785;SDS011;3430;51.192;6.048;2024-03-17T09:45:58;7.07;;;3.10;;
6785;SDS011;3430;51.192;6.048;2024-03-17T09:48:24;3.77;;;3.20;;
6785;SDS011;3430;51.192;6.048;2024-03-17T09:50:54;3.43;;;3.13;;
6785;SDS011;3430;51.192;6.048;2024-03-17T09:53:33;4.33;;;3.23;;
6785;SDS011;3430;51.192;6.048;2024-03-17T09:56:12;2.97;;;2.77;;
6785;SDS011;3430;51.192;6.048;2024-03-17T09:58:38;3.23;;;2.93;;
6785;SDS011;3430;51.192;6.048;2024-03-17T10:01:04;3.60;;;3.10;;
6785;SDS011;3430;51.192;6.048;2024-03-17T10:03:47;3.77;;;3.10;;
6785;SDS011;3430;51.192;6.048;2024-03-17T10:06:24;3.83;;;2.93;;
6785;SDS011;3430;51.192;6.048;2024-03-17T10:08:53;4.40;;;3.00;;
6785;SDS011;3430;51.192;6.048;2024-03-17T10:11:22;3.37;;;2.83;;
6785;SDS011;3430;51.192;6.048;2024-03-17T10:14:01;3.33;;;3.13;;
6785;SDS011;3430;51.192;6.048;2024-03-17T10:16:28;3.70;;;3.33;;
6785;SDS011;3430;51.192;6.048;2024-03-17T10:19:10;3.30;;;2.90;;
6785;SDS011;3430;51.192;6.048;2024-03-17T10:21:36;3.33;;;3.03;;
6785;SDS011;3430;51.192;6.048;2024-03-17T10:24:05;3.53;;;2.90;;
6785;SDS011;3430;51.192;6.048;2024-03-17T10:26:30;3.30;;;2.57;;
6785;SDS011;3430;51.192;6.048;2024-03-17T10:28:56;3.73;;;2.97;;
6785;SDS011;3430;51.192;6.048;2024-03-17T10:31:22;4.30;;;2.97;;
6785;SDS011;3430;51.192;6.048;2024-03-17T10:33:48;3.23;;;2.83;;
6785;SDS011;3430;51.192;6.048;2024-03-17T10:36:25;3.17;;;2.87;;
6785;SDS011;3430;51.192;6.048;2024-03-17T10:38:51;3.13;;;2.83;;
6785;SDS011;3430;51.192;6.048;2024-03-17T10:41:17;3.67;;;3.30;;
6785;SDS011;3430;51.192;6.048;2024-03-17T10:43:50;3.13;;;2.83;;
6785;SDS011;3430;51.192;6.048;2024-03-17T10:46:15;3.83;;;2.87;;
6785;SDS011;3430;51.192;6.048;2024-03-17T10:48:42;4.33;;;3.13;;
6785;SDS011;3430;51.192;6.048;2024-03-17T10:51:09;3.97;;;2.57;;
6785;SDS011;3430;51.192;6.048;2024-03-17T10:53:39;3.30;;;2.83;;
6785;SDS011;3430;51.192;6.048;2024-03-17T10:56:05;3.27;;;2.83;;
6785;SDS011;3430;51.192;6.048;2024-03-17T10:58:34;5.07;;;3.00;;
6785;SDS011;3430;51.192;6.048;2024-03-17T11:01:03;3.10;;;2.80;;
6785;SDS011;3430;51.192;6.048;2024-03-17T11:03:32;3.47;;;2.80;;
6785;SDS011;3430;51.192;6.048;2024-03-17T11:06:01;3.63;;;3.27;;
6785;SDS011;3430;51.192;6.048;2024-03-17T11:08:29;3.20;;;2.90;;
6785;SDS011;3430;51.192;6.048;2024-03-17T11:10:55;3.97;;;3.20;;
6785;SDS011;3430;51.192;6.048;2024-03-17T11:13:28;3.07;;;2.80;;
6785;SDS011;3430;51.192;6.048;2024-03-17T11:15:54;3.33;;;2.83;;
6785;SDS011;3430;51.192;6.048;2024-03-17T11:21:21;4.57;;;3.20;;
6785;SDS011;3430;51.192;6.048;2024-03-17T11:23:41;3.20;;;2.90;;
6785;SDS011;3430;51.192;6.048;2024-03-17T11:26:07;5.17;;;3.20;;
6785;SDS011;3430;51.192;6.048;2024-03-17T11:33:53;8.37;;;2.93;;
6785;SDS011;3430;51.192;6.048;2024-03-17T11:38:55;3.03;;;2.77;;
6785;SDS011;3430;51.192;6.048;2024-03-17T11:46:58;3.23;;;2.93;;
6785;SDS011;3430;51.192;6.048;2024-03-17T11:49:24;3.57;;;2.90;;
6785;SDS011;3430;51.192;6.048;2024-03-17T11:51:54;3.47;;;2.83;;
6785;SDS011;3430;51.192;6.048;2024-03-17T11:54:23;2.93;;;2.60;;
6785;SDS011;3430;51.192;6.048;2024-03-17T11:56:50;2.70;;;2.50;;
6785;SDS011;3430;51.192;6.048;2024-03-17T11:59:16;3.10;;;2.80;;
6785;SDS011;3430;51.192;6.048;2024-03-17T12:01:45;3.30;;;3.07;;
6785;SDS011;3430;51.192;6.048;2024-03-17T12:04:13;3.23;;;2.93;;
6785;SDS011;3430;51.192;6.048;2024-03-17T12:06:38;4.97;;;3.30;;
6785;SDS011;3430;51.192;6.048;2024-03-17T12:11:41;5.33;;;3.07;;
6785;SDS011;3430;51.192;6.048;2024-03-17T12:14:17;3.50;;;3.00;;
6785;SDS011;3430;51.192;6.048;2024-03-17T12:16:50;3.17;;;2.87;;
6785;SDS011;3430;51.192;6.048;2024-03-17T12:19:17;3.97;;;2.97;;
6785;SDS011;3430;51.192;6.048;2024-03-17T12:21:49;5.03;;;3.27;;
6785;SDS011;3430;51.192;6.048;2024-03-17T12:24:24;3.50;;;3.20;;
6785;SDS011;3430;51.192;6.048;2024-03-17T12:26:50;4.40;;;2.90;;
6785;SDS011;3430;51.192;6.048;2024-03-17T12:31:52;4.07;;;3.00;;
6785;SDS011;3430;51.192;6.048;2024-03-17T12:34:21;3.30;;;3.00;;
6785;SDS011;3430;51.192;6.048;2024-03-17T12:36:47;3.00;;;2.80;;
6785;SDS011;3430;51.192;6.048;2024-03-17T12:39:17;3.60;;;3.00;;
6785;SDS011;3430;51.192;6.048;2024-03-17T12:42:00;6.40;;;3.17;;
6785;SDS011;3430;51.192;6.048;2024-03-17T12:44:26;9.40;;;6.87;;
6785;SDS011;3430;51.192;6.048;2024-03-17T12:46:54;3.93;;;3.53;;
6785;SDS011;3430;51.192;6.048;2024-03-17T12:49:20;4.67;;;3.90;;
6785;SDS011;3430;51.192;6.048;2024-03-17T12:51:46;5.13;;;4.33;;
6785;SDS011;3430;51.192;6.048;2024-03-17T12:54:11;4.97;;;4.53;;
6785;SDS011;3430;51.192;6.048;2024-03-17T12:56:37;8.73;;;5.33;;
6785;SDS011;3430;51.192;6.048;2024-03-17T12:59:21;5.90;;;5.30;;
6785;SDS011;3430;51.192;6.048;2024-03-17T13:02:07;5.50;;;5.00;;
6785;SDS011;3430;51.192;6.048;2024-03-17T13:04:35;10.07;;;4.90;;
6785;SDS011;3430;51.192;6.048;2024-03-17T13:07:08;7.00;;;4.50;;
6785;SDS011;3430;51.192;6.048;2024-03-17T13:09:34;5.40;;;4.90;;
6785;SDS011;3430;51.192;6.048;2024-03-17T13:12:00;6.63;;;4.30;;
6785;SDS011;3430;51.192;6.048;2024-03-17T13:14:25;7.57;;;4.10;;
6785;SDS011;3430;51.192;6.048;2024-03-17T13:16:50;6.70;;;4.67;;
6785;SDS011;3430;51.192;6.048;2024-03-17T13:19:15;9.73;;;4.80;;
6785;SDS011;3430;51.192;6.048;2024-03-17T13:21:41;6.00;;;4.80;;
6785;SDS011;3430;51.192;6.048;2024-03-17T13:24:06;5.73;;;4.30;;
6785;SDS011;3430;51.192;6.048;2024-03-17T13:26:32;12.87;;;4.57;;
6785;SDS011;3430;51.192;6.048;2024-03-17T13:28:58;8.23;;;4.73;;
6785;SDS011;3430;51.192;6.048;2024-03-17T13:31:23;7.13;;;4.07;;
6785;SDS011;3430;51.192;6.048;2024-03-17T13:33:49;11.57;;;4.90;;
6785;SDS011;3430;51.192;6.048;2024-03-17T13:36:14;4.40;;;4.00;;
6785;SDS011;3430;51.192;6.048;2024-03-17T13:38:41;6.33;;;4.77;;
6785;SDS011;3430;51.192;6.048;2024-03-17T13:41:06;10.77;;;5.00;;
6785;SDS011;3430;51.192;6.048;2024-03-17T13:43:31;11.53;;;5.40;;
6785;SDS011;3430;51.192;6.048;2024-03-17T13:45:57;5.20;;;4.70;;
6785;SDS011;3430;51.192;6.048;2024-03-17T13:48:22;6.23;;;5.07;;
6785;SDS011;3430;51.192;6.048;2024-03-17T13:50:48;6.83;;;4.77;;
6785;SDS011;3430;51.192;6.048;2024-03-17T13:53:14;5.90;;;4.73;;
6785;SDS011;3430;51.192;6.048;2024-03-17T13:55:40;7.13;;;4.70;;
6785;SDS011;3430;51.192;6.048;2024-03-17T13:58:05;5.07;;;4.60;;
6785;SDS011;3430;51.192;6.048;2024-03-17T14:00:31;10.47;;;4.60;;
6785;SDS011;3430;51.192;6.048;2024-03-17T14:02:56;6.60;;;4.47;;
6785;SDS011;3430;51.192;6.048;2024-03-17T14:05:22;5.63;;;4.63;;
6785;SDS011;3430;51.192;6.048;2024-03-17T14:07:48;6.40;;;4.70;;
6785;SDS011;3430;51.192;6.048;2024-03-17T14:10:17;4.77;;;4.37;;
6785;SDS011;3430;51.192;6.048;2024-03-17T14:12:43;7.90;;;4.87;;
6785;SDS011;3430;51.192;6.048;2024-03-17T14:15:09;6.57;;;4.80;;
6785;SDS011;3430;51.192;6.048;2024-03-17T14:17:41;8.33;;;4.60;;
6785;SDS011;3430;51.192;6.048;2024-03-17T14:20:06;5.00;;;4.50;;
6785;SDS011;3430;51.192;6.048;2024-03-17T14:22:38;6.67;;;4.40;;
6785;SDS011;3430;51.192;6.048;2024-03-17T14:25:07;6.07;;;5.03;;
6785;SDS011;3430;51.192;6.048;2024-03-17T14:27:35;5.60;;;4.37;;
6785;SDS011;3430;51.192;6.048;2024-03-17T14:30:00;11.03;;;4.60;;
6785;SDS011;3430;51.192;6.048;2024-03-17T14:32:26;5.83;;;4.50;;
6785;SDS011;3430;51.192;6.048;2024-03-17T14:34:53;7.90;;;4.27;;
6785;SDS011;3430;51.192;6.048;2024-03-17T14:37:18;5.03;;;4.03;;
6785;SDS011;3430;51.192;6.048;2024-03-17T14:39:46;7.53;;;4.13;;
6785;SDS011;3430;51.192;6.048;2024-03-17T14:42:12;5.00;;;4.33;;
6785;SDS011;3430;51.192;6.048;2024-03-17T14:44:37;5.60;;;4.23;;
6785;SDS011;3430;51.192;6.048;2024-03-17T14:47:05;8.00;;;4.50;;
6785;SDS011;3430;51.192;6.048;2024-03-17T14:49:32;7.43;;;4.53;;
6785;SDS011;3430;51.192;6.048;2024-03-17T14:51:57;7.43;;;3.97;;
6785;SDS011;3430;51.192;6.048;2024-03-17T14:54:23;4.60;;;4.20;;
6785;SDS011;3430;51.192;6.048;2024-03-17T14:56:48;3.90;;;3.60;;
6785;SDS011;3430;51.192;6.048;2024-03-17T14:59:13;4.40;;;4.00;;
6785;SDS011;3430;51.192;6.048;2024-03-17T15:01:42;5.90;;;4.07;;
6785;SDS011;3430;51.192;6.048;2024-03-17T15:04:07;9.30;;;4.20;;
6785;SDS011;3430;51.192;6.048;2024-03-17T15:06:33;5.20;;;4.03;;
6785;SDS011;3430;51.192;6.048;2024-03-17T15:08:58;6.53;;;4.37;;
6785;SDS011;3430;51.192;6.048;2024-03-17T15:11:23;5.03;;;4.40;;
6785;SDS011;3430;51.192;6.048;2024-03-17T15:13:48;6.27;;;4.33;;
6785;SDS011;3430;51.192;6.048;2024-03-17T15:16:14;4.50;;;4.10;;
6785;SDS011;3430;51.192;6.048;2024-03-17T15:18:40;7.23;;;4.23;;
6785;SDS011;3430;51.192;6.048;2024-03-17T15:21:06;5.63;;;4.50;;
6785;SDS011;3430;51.192;6.048;2024-03-17T15:23:31;5.83;;;3.93;;
6785;SDS011;3430;51.192;6.048;2024-03-17T15:26:04;4.63;;;4.23;;
6785;SDS011;3430;51.192;6.048;2024-03-17T15:28:42;6.53;;;3.73;;
6785;SDS011;3430;51.192;6.048;2024-03-17T15:31:08;7.00;;;4.00;;
6785;SDS011;3430;51.192;6.048;2024-03-17T15:33:34;5.23;;;4.57;;
6785;SDS011;3430;51.192;6.048;2024-03-17T15:36:04;4.57;;;3.83;;
6785;SDS011;3430;51.192;6.048;2024-03-17T15:38:30;5.00;;;3.90;;
6785;SDS011;3430;51.192;6.048;2024-03-17T15:40:56;5.50;;;4.20;;
6785;SDS011;3430;51.192;6.048;2024-03-17T15:43:22;4.80;;;4.10;;
6785;SDS011;3430;51.192;6.048;2024-03-17T15:45:47;6.27;;;3.80;;
6785;SDS011;3430;51.192;6.048;2024-03-17T15:48:12;4.23;;;3.60;;
6785;SDS011;3430;51.192;6.048;2024-03-17T15:50:38;4.40;;;4.00;;
6785;SDS011;3430;51.192;6.048;2024-03-17T15:53:04;4.03;;;3.70;;
6785;SDS011;3430;51.192;6.048;2024-03-17T15:55:30;4.30;;;3.90;;
6785;SDS011;3430;51.192;6.048;2024-03-17T15:57:56;5.37;;;3.93;;
6785;SDS011;3430;51.192;6.048;2024-03-17T16:00:22;6.80;;;4.27;;
6785;SDS011;3430;51.192;6.048;2024-03-17T16:02:47;5.67;;;3.90;;
6785;SDS011;3430;51.192;6.048;2024-03-17T16:05:13;4.50;;;3.87;;
6785;SDS011;3430;51.192;6.048;2024-03-17T16:07:39;4.43;;;4.03;;
6785;SDS011;3430;51.192;6.048;2024-03-17T16:10:05;4.00;;;3.70;;
6785;SDS011;3430;51.192;6.048;2024-03-17T16:12:31;4.10;;;3.70;;
6785;SDS011;3430;51.192;6.048;2024-03-17T16:14:56;6.43;;;3.67;;
6785;SDS011;3430;51.192;6.048;2024-03-17T16:17:27;5.50;;;3.30;;
6785;SDS011;3430;51.192;6.048;2024-03-17T16:19:55;4.67;;;4.10;;
6785;SDS011;3430;51.192;6.048;2024-03-17T16:22:20;6.60;;;3.87;;
6785;SDS011;3430;51.192;6.048;2024-03-17T16:24:46;4.97;;;3.90;;
6785;SDS011;3430;51.192;6.048;2024-03-17T16:27:13;5.80;;;3.87;;
6785;SDS011;3430;51.192;6.048;2024-03-17T16:29:38;7.50;;;3.60;;
6785;SDS011;3430;51.192;6.048;2024-03-17T16:32:05;5.60;;;3.93;;
6785;SDS011;3430;51.192;6.048;2024-03-17T16:34:30;3.97;;;3.43;;
6785;SDS011;3430;51.192;6.048;2024-03-17T16:36:57;4.43;;;3.83;;
6785;SDS011;3430;51.192;6.048;2024-03-17T16:39:23;4.73;;;3.10;;
6785;SDS011;3430;51.192;6.048;2024-03-17T16:41:48;4.90;;;3.63;;
6785;SDS011;3430;51.192;6.048;2024-03-17T16:49:18;3.90;;;3.10;;
6785;SDS011;3430;51.192;6.048;2024-03-17T16:51:44;4.10;;;3.70;;
6785;SDS011;3430;51.192;6.048;2024-03-17T16:54:09;12.33;;;4.20;;
6785;SDS011;3430;51.192;6.048;2024-03-17T16:56:35;6.07;;;3.87;;
6785;SDS011;3430;51.192;6.048;2024-03-17T16:59:01;5.40;;;3.53;;
6785;SDS011;3430;51.192;6.048;2024-03-17T17:01:26;5.77;;;3.70;;
6785;SDS011;3430;51.192;6.048;2024-03-17T17:03:53;4.50;;;3.93;;
6785;SDS011;3430;51.192;6.048;2024-03-17T17:06:18;3.90;;;3.57;;
6785;SDS011;3430;51.192;6.048;2024-03-17T17:08:47;5.40;;;3.80;;
6785;SDS011;3430;51.192;6.048;2024-03-17T17:11:14;6.23;;;4.30;;
6785;SDS011;3430;51.192;6.048;2024-03-17T17:13:40;5.27;;;3.43;;
6785;SDS011;3430;51.192;6.048;2024-03-17T17:16:05;4.03;;;3.60;;